Time;durP1;ratioP1;P1;durP2;ratioP2;P2;SDS_P1;SDS_P2;PMS_P1;PMS_P2;Temp;Humidity;BMP_temperature;BMP_pressure;BME280_temperature;BME280_humidity;BME280_pressure;Samples;Min_cycle;Max_cycle;Signal;HPM_P1;HPM_P2
2022/05/16 00:01:19;;;;;;;2.90;2.70;;;15.90;99.90;;;;;;4923500;28;20184;-85
2022/05/16 00:03:44;;;;;;;3.33;3.03;;;15.90;99.90;;;;;;4907510;28;20233;-85
2022/05/16 00:06:10;;;;;;;3.30;3.03;;;15.80;99.90;;;;;;4914389;28;20191;-86
2022/05/16 00:08:36;;;;;;;5.33;3.27;;;15.90;99.90;;;;;;4918809;28;20194;-85
2022/05/16 00:11:01;;;;;;;4.30;3.30;;;15.90;99.90;;;;;;4921881;28;20195;-85
2022/05/16 00:13:27;;;;;;;4.40;4.00;;;15.90;99.90;;;;;;4940345;28;20175;-85
2022/05/16 00:15:52;;;;;;;3.13;2.93;;;16.00;99.90;;;;;;4919547;29;20762;-85
2022/05/16 00:18:18;;;;;;;2.90;2.70;;;15.90;99.90;;;;;;4903886;28;20227;-85
2022/05/16 00:20:44;;;;;;;3.20;2.90;;;16.00;99.90;;;;;;4917995;28;20184;-84
2022/05/16 00:23:10;;;;;;;3.10;2.80;;;15.90;99.90;;;;;;4893450;28;20865;-85
2022/05/16 00:25:35;;;;;;;3.70;3.10;;;15.80;99.90;;;;;;4923229;28;20189;-85
2022/05/16 00:28:01;;;;;;;3.33;3.03;;;15.70;99.90;;;;;;4916291;28;20700;-85
2022/05/16 00:30:27;;;;;;;3.27;3.07;;;15.70;99.90;;;;;;4922206;28;20973;-85
2022/05/16 00:32:52;;;;;;;3.70;3.40;;;15.50;99.90;;;;;;4927033;28;20279;-85
2022/05/16 00:35:20;;;;;;;4.13;3.40;;;15.50;99.90;;;;;;4929931;29;20544;-85
2022/05/16 00:37:46;;;;;;;2.93;2.73;;;15.50;99.90;;;;;;4928920;28;20213;-85
2022/05/16 00:40:13;;;;;;;3.27;3.07;;;15.50;99.90;;;;;;4904938;28;20449;-85
2022/05/16 00:42:39;;;;;;;3.10;2.73;;;15.50;99.90;;;;;;4920056;28;20187;-84
2022/05/16 00:45:08;;;;;;;3.23;3.03;;;15.50;99.90;;;;;;4916669;28;20434;-84
2022/05/16 00:47:34;;;;;;;3.53;2.37;;;15.50;99.90;;;;;;4922248;28;20450;-84
2022/05/16 00:50:02;;;;;;;3.00;2.80;;;15.40;99.90;;;;;;4918873;29;20435;-85
2022/05/16 00:52:32;;;;;;;3.80;2.93;;;15.50;99.90;;;;;;4938661;28;20474;-84
2022/05/16 00:55:06;;;;;;;3.67;3.00;;;15.60;99.90;;;;;;4899644;29;20529;-84
2022/05/16 00:57:35;;;;;;;2.90;2.70;;;15.60;99.90;;;;;;4912551;28;20487;-85
2022/05/16 01:00:24;;;;;;;3.40;3.10;;;15.70;99.90;;;;;;4898139;28;20450;-85
2022/05/16 01:05:40;;;;;;;5.70;2.80;;;15.80;99.90;;;;;;4924046;28;20481;-84
2022/05/16 01:08:11;;;;;;;3.60;3.30;;;15.70;99.90;;;;;;4906936;29;20527;-86
2022/05/16 01:10:38;;;;;;;3.40;3.20;;;15.70;99.90;;;;;;4908925;28;20648;-85
2022/05/16 01:13:04;;;;;;;3.20;3.00;;;15.50;99.90;;;;;;4893698;28;20451;-85
2022/05/16 01:15:32;;;;;;;5.30;3.83;;;15.50;99.90;;;;;;4903112;28;21563;-85
2022/05/16 01:17:58;;;;;;;2.80;2.60;;;15.40;99.90;;;;;;4907378;29;20717;-86
2022/05/16 01:20:42;;;;;;;2.83;2.63;;;15.30;99.90;;;;;;4901466;28;20505;-85
2022/05/16 01:23:08;;;;;;;3.90;3.00;;;15.20;99.90;;;;;;4913986;28;20861;-85
2022/05/16 01:25:34;;;;;;;2.93;2.73;;;15.10;99.90;;;;;;4901108;28;20458;-85
2022/05/16 01:28:04;;;;;;;3.10;2.90;;;15.20;99.90;;;;;;4921090;28;24602;-86
2022/05/16 01:30:51;;;;;;;3.10;2.80;;;15.20;99.90;;;;;;4896371;28;20211;-86
2022/05/16 01:33:18;;;;;;;3.10;2.80;;;15.30;99.90;;;;;;4900877;29;20472;-85
2022/05/16 01:35:44;;;;;;;3.27;2.97;;;15.20;99.90;;;;;;4912437;28;20442;-85
2022/05/16 01:38:26;;;;;;;3.40;2.73;;;15.30;99.90;;;;;;4912845;28;20474;-86
2022/05/16 01:40:55;;;;;;;3.83;3.40;;;15.30;99.90;;;;;;4922189;28;20235;-85
2022/05/16 01:43:25;;;;;;;3.87;3.57;;;15.30;99.90;;;;;;4907894;29;21167;-85
2022/05/16 01:45:51;;;;;;;4.70;4.30;;;15.40;99.90;;;;;;4905012;29;21176;-85
2022/05/16 01:48:17;;;;;;;4.80;3.70;;;15.30;99.90;;;;;;4909654;28;20478;-85
2022/05/16 01:50:44;;;;;;;4.07;3.67;;;15.20;99.90;;;;;;4910021;28;21371;-85
2022/05/16 01:53:13;;;;;;;4.67;4.27;;;15.20;99.90;;;;;;4932939;28;20829;-85
2022/05/16 01:55:39;;;;;;;4.40;4.00;;;15.10;99.90;;;;;;4943138;28;20972;-85
2022/05/16 01:58:08;;;;;;;6.33;4.30;;;15.00;99.90;;;;;;4940115;28;20490;-85
2022/05/16 02:00:35;;;;;;;4.13;3.80;;;14.90;99.90;;;;;;4919221;28;21598;-85
2022/05/16 02:03:01;;;;;;;4.00;3.70;;;14.90;99.90;;;;;;4914210;28;20447;-85
2022/05/16 02:05:27;;;;;;;4.00;3.63;;;14.80;99.90;;;;;;4923985;28;20438;-84
2022/05/16 02:07:56;;;;;;;4.53;4.07;;;14.80;99.90;;;;;;4910481;28;20453;-84
2022/05/16 02:10:24;;;;;;;3.97;3.67;;;14.70;99.90;;;;;;4915966;28;20462;-84
2022/05/16 02:12:51;;;;;;;3.97;3.60;;;14.70;99.90;;;;;;4896426;29;20443;-84
2022/05/16 02:15:34;;;;;;;4.27;3.87;;;14.70;99.90;;;;;;4893059;29;20450;-84
2022/05/16 02:18:02;;;;;;;4.70;4.20;;;14.70;99.90;;;;;;4912021;28;21665;-84
2022/05/16 02:20:29;;;;;;;4.87;4.47;;;14.60;99.90;;;;;;4914476;28;20538;-84
2022/05/16 02:25:42;;;;;;;4.53;4.23;;;14.70;99.90;;;;;;4910694;28;20974;-85
2022/05/16 02:28:10;;;;;;;4.50;4.20;;;14.60;99.90;;;;;;4900423;28;20922;-84
2022/05/16 02:30:37;;;;;;;4.10;3.70;;;14.70;99.90;;;;;;4898465;28;20442;-85
2022/05/16 02:33:03;;;;;;;6.17;4.23;;;14.70;99.90;;;;;;4894655;29;20462;-85
2022/05/16 02:35:32;;;;;;;4.20;3.80;;;14.70;99.90;;;;;;4907640;28;20525;-84
2022/05/16 02:37:58;;;;;;;4.60;4.20;;;14.70;99.90;;;;;;4915943;29;20681;-85
2022/05/16 02:40:28;;;;;;;4.00;3.70;;;14.60;99.90;;;;;;4937525;28;20442;-85
2022/05/16 02:42:53;;;;;;;4.60;4.20;;;14.60;99.90;;;;;;4942258;28;20458;-85
2022/05/16 02:45:20;;;;;;;4.60;4.20;;;14.70;99.90;;;;;;4918193;28;20442;-84
2022/05/16 02:47:51;;;;;;;4.70;4.30;;;14.80;99.90;;;;;;4920959;28;20276;-85
2022/05/16 02:50:18;;;;;;;4.57;4.00;;;14.90;99.90;;;;;;4932458;28;20442;-84
2022/05/16 02:52:44;;;;;;;5.27;4.70;;;15.00;99.90;;;;;;4939706;28;20451;-85
2022/05/16 02:55:10;;;;;;;3.43;3.23;;;15.00;99.90;;;;;;4921437;28;20435;-84
2022/05/16 02:57:38;;;;;;;4.17;3.83;;;14.90;99.90;;;;;;4924911;28;20189;-85
2022/05/16 03:00:10;;;;;;;4.27;3.93;;;14.90;99.90;;;;;;4916462;28;20470;-84
2022/05/16 03:02:36;;;;;;;4.43;4.03;;;15.00;99.90;;;;;;4910310;28;21377;-85
2022/05/16 03:05:03;;;;;;;5.00;4.60;;;15.10;99.90;;;;;;4929217;28;20449;-85
2022/05/16 03:07:35;;;;;;;4.37;4.00;;;15.20;99.90;;;;;;4917975;28;20512;-84
2022/05/16 03:10:01;;;;;;;4.83;4.23;;;15.20;99.90;;;;;;4894796;28;20438;-85
2022/05/16 03:12:29;;;;;;;4.60;3.90;;;15.30;99.90;;;;;;4904588;28;20456;-85
2022/05/16 03:14:55;;;;;;;4.07;3.77;;;15.40;99.90;;;;;;4903528;28;20541;-84
2022/05/16 03:17:23;;;;;;;4.80;4.40;;;15.40;99.90;;;;;;4928855;28;20446;-84
2022/05/16 03:19:49;;;;;;;4.17;3.87;;;15.50;99.90;;;;;;4925418;28;21647;-84
2022/05/16 03:22:15;;;;;;;4.43;4.13;;;15.50;99.90;;;;;;4910630;28;21186;-84
2022/05/16 03:24:41;;;;;;;4.13;3.80;;;15.60;99.90;;;;;;4897063;28;20328;-84
2022/05/16 03:27:12;;;;;;;4.40;3.73;;;15.70;99.90;;;;;;4904292;29;20289;-85
2022/05/16 03:29:38;;;;;;;4.53;3.87;;;15.70;99.90;;;;;;4898218;28;20450;-84
2022/05/16 03:32:04;;;;;;;3.87;3.43;;;15.60;99.90;;;;;;4915868;28;20826;-84
2022/05/16 03:34:30;;;;;;;5.27;4.00;;;15.60;99.90;;;;;;4932038;28;20763;-85
2022/05/16 03:36:55;;;;;;;3.27;3.07;;;15.60;99.90;;;;;;4922197;28;20765;-89
2022/05/16 03:42:05;;;;;;;3.10;2.90;;;15.80;99.90;;;;;;4912922;28;20217;-86
2022/05/16 03:44:32;;;;;;;3.23;2.90;;;15.80;99.90;;;;;;4922024;28;20541;-85
2022/05/16 03:47:00;;;;;;;3.30;3.10;;;15.90;99.90;;;;;;4904615;28;20183;-86
2022/05/16 03:49:26;;;;;;;3.70;3.40;;;16.00;99.90;;;;;;4914100;28;20533;-84
2022/05/16 03:51:51;;;;;;;4.50;3.40;;;15.90;99.90;;;;;;4895774;28;20490;-87
2022/05/16 03:54:17;;;;;;;4.00;3.60;;;15.90;99.90;;;;;;4914901;28;20191;-85
2022/05/16 03:56:43;;;;;;;3.30;3.00;;;16.00;99.90;;;;;;4894751;28;20220;-83
2022/05/16 03:59:11;;;;;;;3.60;3.33;;;16.00;99.90;;;;;;4896788;28;20197;-84
2022/05/16 04:01:37;;;;;;;4.73;3.33;;;16.10;99.90;;;;;;4902366;28;20764;-85
2022/05/16 04:04:06;;;;;;;3.33;3.13;;;16.00;99.90;;;;;;4894659;29;20801;-85
2022/05/16 04:06:34;;;;;;;3.40;3.10;;;16.10;99.90;;;;;;4925173;28;20569;-84
2022/05/16 04:09:00;;;;;;;4.47;3.37;;;16.10;99.90;;;;;;4895335;29;20486;-84
2022/05/16 04:11:26;;;;;;;3.80;3.50;;;16.10;99.90;;;;;;4904233;28;20651;-87
2022/05/16 04:13:52;;;;;;;3.37;3.17;;;16.10;99.90;;;;;;4904742;28;20501;-84
2022/05/16 04:16:17;;;;;;;3.90;3.50;;;16.10;99.90;;;;;;4917159;28;20810;-85
2022/05/16 04:18:44;;;;;;;3.63;3.33;;;16.10;99.90;;;;;;4926668;28;20695;-85
2022/05/16 04:21:10;;;;;;;3.10;2.87;;;16.20;99.90;;;;;;4930045;28;20660;-85
2022/05/16 04:23:36;;;;;;;3.80;3.43;;;16.20;99.90;;;;;;4921051;28;20977;-85
2022/05/16 04:26:05;;;;;;;4.20;3.33;;;16.10;99.90;;;;;;4923665;29;20485;-85
2022/05/16 04:28:41;;;;;;;5.90;3.73;;;16.10;99.90;;;;;;4925985;28;20211;-85
2022/05/16 04:31:06;;;;;;;3.73;3.53;;;16.20;99.90;;;;;;4940941;28;20450;-85
2022/05/16 04:33:34;;;;;;;3.67;3.30;;;16.30;99.90;;;;;;4942021;28;20450;-85
2022/05/16 04:36:00;;;;;;;5.07;4.67;;;16.40;99.90;;;;;;4942007;28;20681;-84
2022/05/16 04:38:26;;;;;;;4.07;3.53;;;16.50;99.90;;;;;;4927953;28;20446;-84
2022/05/16 04:43:36;;;;;;;5.13;3.00;;;16.60;99.90;;;;;;4941184;28;20191;-85
2022/05/16 04:46:15;;;;;;;4.37;3.73;;;16.60;99.90;;;;;;4929338;29;20446;-85
2022/05/16 04:48:40;;;;;;;3.13;2.93;;;16.60;99.90;;;;;;4943982;28;20490;-85
2022/05/16 04:51:06;;;;;;;4.80;4.40;;;16.70;99.90;;;;;;4929809;29;20806;-85
2022/05/16 04:53:32;;;;;;;3.83;3.53;;;16.80;99.90;;;;;;4941515;28;20196;-85
2022/05/16 04:55:58;;;;;;;4.00;3.60;;;17.00;99.90;;;;;;4940969;28;20247;-84
2022/05/16 04:58:24;;;;;;;4.07;3.77;;;17.20;99.90;;;;;;4928977;28;20210;-85
2022/05/16 05:00:50;;;;;;;3.90;3.60;;;17.20;99.90;;;;;;4944541;28;21031;-85
2022/05/16 05:03:15;;;;;;;4.67;3.93;;;17.30;99.90;;;;;;4930497;28;20179;-85
2022/05/16 05:05:41;;;;;;;3.70;3.40;;;17.40;99.90;;;;;;4927880;28;20194;-85
2022/05/16 05:08:06;;;;;;;7.00;4.73;;;17.50;99.90;;;;;;4929131;29;20238;-85
2022/05/16 05:16:11;;;;;;;4.43;3.50;;;17.50;99.90;;;;;;4942321;28;20501;-85
2022/05/16 05:18:37;;;;;;;5.00;3.53;;;17.60;99.90;;;;;;4928999;28;20443;-84
2022/05/16 05:21:03;;;;;;;3.93;3.60;;;17.60;99.90;;;;;;4946612;28;20505;-85
2022/05/16 05:23:29;;;;;;;4.20;3.80;;;17.60;99.90;;;;;;4926518;28;20447;-85
2022/05/16 05:25:56;;;;;;;3.80;3.40;;;17.60;99.90;;;;;;4942806;28;20703;-86
2022/05/16 05:28:22;;;;;;;4.00;3.60;;;17.60;99.90;;;;;;4940744;28;20274;-86
2022/05/16 05:30:51;;;;;;;7.13;4.53;;;17.70;99.90;;;;;;4941590;28;20441;-86
2022/05/16 05:33:17;;;;;;;6.37;4.60;;;17.80;99.90;;;;;;4942529;28;20325;-85
2022/05/16 05:35:42;;;;;;;6.20;4.80;;;17.90;99.90;;;;;;4944733;28;20553;-86
2022/05/16 05:38:09;;;;;;;6.70;4.23;;;18.00;99.90;;;;;;4942482;28;20201;-85
2022/05/16 05:40:37;;;;;;;4.30;3.90;;;18.00;99.90;;;;;;4939360;28;20192;-85
2022/05/16 05:43:07;;;;;;;4.40;4.10;;;18.00;99.90;;;;;;4942507;28;20472;-86
2022/05/16 05:45:34;;;;;;;3.87;3.57;;;17.90;99.90;;;;;;4940144;28;20784;-85
2022/05/16 05:48:00;;;;;;;3.83;3.50;;;17.80;99.90;;;;;;4929149;29;20486;-86
2022/05/16 05:50:25;;;;;;;4.93;4.03;;;17.80;99.90;;;;;;4939967;28;20450;-85
2022/05/16 05:52:51;;;;;;;7.23;5.03;;;17.80;99.90;;;;;;4922480;28;20556;-85
2022/05/16 05:55:17;;;;;;;5.53;4.97;;;17.80;99.90;;;;;;4915402;28;20347;-85
2022/05/16 05:57:42;;;;;;;5.37;4.60;;;17.80;99.90;;;;;;4925873;28;20191;-85
2022/05/16 06:00:12;;;;;;;5.57;4.83;;;17.80;99.90;;;;;;4945730;28;20179;-85
2022/05/16 06:02:51;;;;;;;7.13;5.03;;;17.80;99.90;;;;;;4945151;28;20683;-85
2022/05/16 06:05:20;;;;;;;5.73;4.47;;;17.80;99.90;;;;;;4943682;28;20485;-85
2022/05/16 06:07:45;;;;;;;6.93;4.97;;;17.80;99.90;;;;;;4946750;28;20485;-85
2022/05/16 06:10:11;;;;;;;4.87;4.37;;;17.70;99.90;;;;;;4938800;28;21878;-85
2022/05/16 06:12:39;;;;;;;4.07;3.73;;;17.60;99.90;;;;;;4932406;28;20191;-85
2022/05/16 06:15:07;;;;;;;4.40;3.77;;;17.60;99.90;;;;;;4926258;28;20444;-85
2022/05/16 06:17:35;;;;;;;4.10;3.80;;;17.60;99.90;;;;;;4931020;28;20443;-86
2022/05/16 06:20:01;;;;;;;4.43;4.13;;;17.60;99.90;;;;;;4929851;29;20807;-85
2022/05/16 06:22:29;;;;;;;4.73;4.33;;;17.50;99.90;;;;;;4915188;28;20442;-84
2022/05/16 06:27:39;;;;;;;5.50;4.27;;;17.60;99.90;;;;;;4924905;28;20510;-88
2022/05/16 06:30:05;;;;;;;4.30;4.00;;;17.50;99.90;;;;;;4915443;28;21170;-86
2022/05/16 06:33:11;;;;;;;4.60;4.30;;;17.60;99.90;;;;;;4919634;28;20190;-90
2022/05/16 06:36:08;;;;;;;5.10;4.60;;;17.30;99.90;;;;;;4943373;28;20984;-89
2022/05/16 06:38:35;;;;;;;5.17;4.50;;;17.30;99.90;;;;;;4912187;28;21726;-88
2022/05/16 06:41:04;;;;;;;4.23;3.83;;;17.20;99.90;;;;;;4920858;28;20461;-90
2022/05/16 06:43:37;;;;;;;4.57;4.20;;;17.20;99.90;;;;;;4935384;28;20451;-87
2022/05/16 06:46:02;;;;;;;5.20;4.43;;;17.30;99.90;;;;;;4939211;28;20529;-85
2022/05/16 06:48:29;;;;;;;6.73;4.53;;;17.40;99.90;;;;;;4927954;28;20486;-84
2022/05/16 06:50:55;;;;;;;4.53;4.13;;;17.50;99.90;;;;;;4933288;28;20218;-84
2022/05/16 06:54:01;;;;;;;;;;;;;;;;;;;;;
2022/05/16 06:56:27;;;;;;;4.47;4.13;;;17.80;99.90;;;;;;4927260;28;20805;-85
2022/05/16 06:58:52;;;;;;;5.53;4.80;;;17.90;99.90;;;;;;4919436;29;20450;-86
2022/05/16 07:01:18;;;;;;;4.80;4.40;;;18.00;99.90;;;;;;4932960;28;20206;-84
2022/05/16 07:03:44;;;;;;;5.10;4.70;;;18.10;99.90;;;;;;4933929;28;20186;-85
2022/05/16 07:06:14;;;;;;;5.23;4.83;;;18.30;99.90;;;;;;4924023;29;20199;-85
2022/05/16 07:08:53;;;;;;;5.60;5.17;;;18.50;99.90;;;;;;4925054;28;20218;-83
2022/05/16 07:11:18;;;;;;;4.60;4.30;;;18.70;99.90;;;;;;4917155;29;20462;-84
2022/05/16 07:13:46;;;;;;;4.67;4.30;;;18.80;99.90;;;;;;4918585;28;20191;-84
2022/05/16 07:16:12;;;;;;;4.10;3.80;;;19.10;99.90;;;;;;4931348;28;20202;-84
2022/05/16 07:18:41;;;;;;;5.07;4.70;;;19.40;99.90;;;;;;4932550;28;20438;-84
2022/05/16 07:21:15;;;;;;;4.93;4.53;;;19.60;99.90;;;;;;4918831;28;20205;-84
2022/05/16 07:23:41;;;;;;;4.33;3.93;;;19.80;99.90;;;;;;4932354;28;20612;-86
2022/05/16 07:28:50;;;;;;;4.90;3.50;;;20.20;99.90;;;;;;4919898;28;20423;-85
2022/05/16 07:31:16;;;;;;;4.43;4.13;;;20.60;99.90;;;;;;4910395;28;20447;-84
2022/05/16 07:33:41;;;;;;;4.03;3.63;;;20.90;99.90;;;;;;4916358;28;20653;-84
2022/05/16 07:36:07;;;;;;;3.87;3.57;;;21.10;99.90;;;;;;4911612;28;20389;-84
2022/05/16 07:38:33;;;;;;;4.03;3.67;;;21.40;99.90;;;;;;4905492;28;20184;-84
2022/05/16 07:41:00;;;;;;;4.63;4.00;;;21.70;99.90;;;;;;4925524;28;20210;-86
2022/05/16 07:43:26;;;;;;;4.07;3.77;;;22.00;99.90;;;;;;4917950;28;20253;-85
2022/05/16 07:45:54;;;;;;;4.47;4.10;;;22.20;99.90;;;;;;4919263;28;20454;-87
2022/05/16 07:48:22;;;;;;;4.50;3.63;;;22.60;99.90;;;;;;4906356;29;20493;-83
2022/05/16 07:50:49;;;;;;;4.07;3.73;;;22.90;99.90;;;;;;4920157;28;21202;-85
2022/05/16 07:53:15;;;;;;;4.33;3.60;;;23.00;99.80;;;;;;4907311;28;20446;-84
2022/05/16 07:55:43;;;;;;;4.33;3.93;;;23.10;99.90;;;;;;4926645;28;20776;-84
2022/05/16 07:58:09;;;;;;;5.00;4.30;;;23.00;99.50;;;;;;4913728;29;20864;-85
2022/05/16 08:00:35;;;;;;;3.90;3.50;;;23.00;99.50;;;;;;4926884;28;20450;-82
2022/05/16 08:03:04;;;;;;;4.50;3.80;;;22.70;99.20;;;;;;4927528;28;20187;-84
2022/05/16 08:05:37;;;;;;;4.23;3.93;;;22.70;99.20;;;;;;4927119;28;20203;-83
2022/05/16 08:11:03;;;;;;;4.70;4.30;;;22.90;99.40;;;;;;4925046;28;21114;-81
2022/05/16 08:13:31;;;;;;;4.13;3.73;;;23.10;99.00;;;;;;4913805;28;20446;-88
2022/05/16 08:15:58;;;;;;;5.23;3.77;;;23.30;99.10;;;;;;4913115;29;20447;-88
2022/05/16 08:18:33;;;;;;;6.40;3.87;;;23.60;99.20;;;;;;4931962;28;20431;-90
2022/05/16 08:20:59;;;;;;;4.40;3.80;;;23.90;98.50;;;;;;4943344;28;20469;-89
2022/05/16 08:23:27;;;;;;;4.50;4.10;;;23.80;98.00;;;;;;4922164;28;20821;-88
2022/05/16 08:25:55;;;;;;;4.40;4.00;;;23.50;97.60;;;;;;4922496;28;20799;-79
2022/05/16 08:28:22;;;;;;;10.33;9.43;;;23.50;98.80;;;;;;4910368;28;20479;-81
2022/05/16 08:30:47;;;;;;;4.33;3.93;;;23.70;97.50;;;;;;4936519;28;20450;-84
2022/05/16 08:33:13;;;;;;;5.90;4.33;;;24.10;98.20;;;;;;4927105;28;20458;-81
2022/05/16 08:35:39;;;;;;;4.17;3.73;;;24.10;97.10;;;;;;4908431;28;20585;-82
2022/05/16 08:41:04;;;;;;;4.20;3.90;;;23.60;98.20;;;;;;4926139;28;20453;-82
2022/05/16 08:43:54;;;;;;;4.53;4.13;;;23.50;98.10;;;;;;4931256;28;20450;-84
2022/05/16 08:46:34;;;;;;;4.20;3.80;;;23.40;98.40;;;;;;4935527;28;20446;-81
2022/05/16 08:49:22;;;;;;;7.57;4.10;;;23.40;98.30;;;;;;4925791;28;20585;-81
2022/05/16 08:51:53;;;;;;;4.27;3.97;;;23.30;98.00;;;;;;4927321;28;20528;-81
2022/05/16 08:54:53;;;;;;;4.30;3.73;;;23.40;98.70;;;;;;4912689;29;21019;-82
2022/05/16 08:57:36;;;;;;;4.40;4.00;;;23.50;98.40;;;;;;4927623;29;20965;-80
2022/05/16 09:00:25;;;;;;;5.10;4.30;;;23.60;98.60;;;;;;4915873;29;20453;-80
2022/05/16 09:02:52;;;;;;;4.80;4.40;;;23.50;98.40;;;;;;4939752;28;20466;-80
2022/05/16 09:05:29;;;;;;;4.30;4.00;;;23.50;98.50;;;;;;4925172;28;20455;-80
2022/05/16 09:07:56;;;;;;;5.53;4.20;;;23.40;97.60;;;;;;4929157;29;20492;-80
2022/05/16 09:10:25;;;;;;;4.57;3.97;;;23.40;97.70;;;;;;4946258;28;20896;-81
2022/05/16 09:13:16;;;;;;;6.33;4.13;;;23.10;97.20;;;;;;4944276;28;20454;-81
2022/05/16 09:15:54;;;;;;;4.30;3.70;;;23.20;97.80;;;;;;4949770;28;20450;-80
2022/05/16 09:18:25;;;;;;;3.83;3.53;;;23.40;97.60;;;;;;4930294;28;20446;-79
2022/05/16 09:21:00;;;;;;;7.60;3.80;;;23.30;97.50;;;;;;4929631;28;20758;-80
2022/05/16 09:23:48;;;;;;;3.67;3.47;;;23.20;97.60;;;;;;4931121;28;20472;-80
2022/05/16 09:26:54;;;;;;;3.60;3.30;;;23.20;97.30;;;;;;4931659;29;20443;-80
2022/05/16 09:29:50;;;;;;;5.50;3.50;;;23.30;97.60;;;;;;4932291;29;20615;-80
2022/05/16 09:32:30;;;;;;;3.97;3.57;;;23.50;96.90;;;;;;4927378;28;20505;-80
2022/05/16 09:34:55;;;;;;;4.00;3.60;;;23.50;97.60;;;;;;4945903;28;20457;-80
2022/05/16 09:37:21;;;;;;;3.70;3.40;;;23.50;97.00;;;;;;4947089;28;20451;-80
2022/05/16 09:39:50;;;;;;;3.90;3.60;;;23.40;96.90;;;;;;4932685;28;20191;-79
2022/05/16 09:42:21;;;;;;;4.50;4.10;;;23.40;96.80;;;;;;4930561;28;20222;-79
2022/05/16 09:45:01;;;;;;;4.00;3.63;;;23.60;97.00;;;;;;4939496;28;20441;-80
2022/05/16 09:47:34;;;;;;;3.77;3.27;;;23.80;96.50;;;;;;4941248;28;20902;-80
2022/05/16 09:50:02;;;;;;;4.33;3.80;;;24.40;95.90;;;;;;4912362;28;20489;-83
2022/05/16 09:52:30;;;;;;;4.30;3.80;;;24.60;95.10;;;;;;4910763;28;20849;-82
2022/05/16 09:55:09;;;;;;;5.60;4.03;;;24.60;95.40;;;;;;4927712;28;20448;-81
2022/05/16 09:57:50;;;;;;;6.87;3.90;;;25.10;95.50;;;;;;4918040;28;20439;-81
2022/05/16 10:00:41;;;;;;;4.60;4.20;;;25.60;93.50;;;;;;4920094;29;20450;-80
2022/05/16 10:03:13;;;;;;;4.57;4.27;;;25.20;93.70;;;;;;4927967;29;20475;-83
2022/05/16 10:05:45;;;;;;;4.83;4.07;;;25.00;94.00;;;;;;4941484;28;20443;-81
2022/05/16 10:08:14;;;;;;;4.50;4.10;;;25.00;94.20;;;;;;4926335;28;21095;-83
2022/05/16 10:10:42;;;;;;;5.00;4.43;;;24.80;94.20;;;;;;4917388;28;20794;-82
2022/05/16 10:13:09;;;;;;;4.80;4.40;;;24.60;94.10;;;;;;4921209;28;20811;-83
2022/05/16 10:15:36;;;;;;;4.80;4.43;;;24.40;94.90;;;;;;4913612;28;20949;-84
2022/05/16 10:18:05;;;;;;;4.40;4.00;;;24.20;95.40;;;;;;4934092;28;21075;-84
2022/05/16 10:20:36;;;;;;;5.07;4.10;;;23.80;95.70;;;;;;4923922;28;20564;-85
2022/05/16 10:23:09;;;;;;;6.17;4.57;;;23.60;96.10;;;;;;4916797;29;21061;-84
2022/05/16 10:25:42;;;;;;;4.80;4.40;;;23.30;96.60;;;;;;4926241;28;20430;-85
2022/05/16 10:28:15;;;;;;;5.73;4.67;;;23.10;97.50;;;;;;4933158;28;20549;-84
2022/05/16 10:33:38;;;;;;;7.00;5.43;;;22.90;95.90;;;;;;4926673;28;20469;-89
2022/05/16 10:36:09;;;;;;;5.87;5.27;;;22.90;96.30;;;;;;4918643;28;23163;-91
2022/05/16 10:38:35;;;;;;;8.90;5.80;;;23.00;95.60;;;;;;4912756;28;20858;-90
2022/05/16 10:41:02;;;;;;;6.40;4.83;;;23.10;94.80;;;;;;4934085;28;20447;-89
2022/05/16 10:43:59;;;;;;;5.67;4.83;;;23.00;94.70;;;;;;4914373;28;20568;-90
2022/05/16 10:46:33;;;;;;;6.73;5.10;;;22.90;94.60;;;;;;4917518;28;20462;-90
2022/05/16 10:49:21;;;;;;;11.80;4.97;;;22.90;94.20;;;;;;4917023;28;20482;-91
2022/05/16 10:51:59;;;;;;;6.60;5.70;;;22.80;94.30;;;;;;4928107;28;20439;-91
2022/05/16 10:54:29;;;;;;;5.67;5.10;;;22.80;94.90;;;;;;4919430;28;20454;-93
2022/05/16 10:56:55;;;;;;;7.00;5.20;;;22.70;94.80;;;;;;4927425;28;20801;-92
2022/05/16 10:59:37;;;;;;;6.17;5.67;;;22.60;95.10;;;;;;4908879;28;22199;-92
2022/05/16 11:02:37;;;;;;;6.40;5.40;;;22.50;95.60;;;;;;4926779;29;20725;-94
2022/05/16 11:05:21;;;;;;;7.97;5.40;;;22.40;95.60;;;;;;4919785;29;20853;-96
2022/05/16 11:08:27;;;;;;;6.40;5.50;;;22.50;95.50;;;;;;4922254;28;21274;-89
2022/05/16 11:10:55;;;;;;;8.77;5.70;;;22.40;95.50;;;;;;4916056;29;20435;-89
2022/05/16 11:13:25;;;;;;;4.93;4.30;;;22.40;96.20;;;;;;4923004;28;20759;-91
2022/05/16 11:15:56;;;;;;;6.87;3.90;;;22.30;95.70;;;;;;4917263;28;20435;-84
2022/05/16 11:18:48;;;;;;;4.00;3.20;;;22.20;95.20;;;;;;4914493;28;20435;-87
2022/05/16 11:21:55;;;;;;;9.03;3.13;;;22.00;95.30;;;;;;4940830;28;20438;-85
2022/05/16 11:24:51;;;;;;;4.37;3.13;;;21.70;97.10;;;;;;4863802;29;20438;-83
2022/05/16 11:27:33;;;;;;;10.00;4.37;;;21.00;99.90;;;;;;4934571;28;20435;-84
2022/05/16 11:30:07;;;;;;;6.93;3.97;;;20.40;99.90;;;;;;4933332;28;20454;-90
2022/05/16 11:32:52;;;;;;;6.00;3.90;;;19.80;99.90;;;;;;4931374;28;20653;-96
2022/05/16 11:35:32;;;;;;;5.43;4.33;;;19.30;99.90;;;;;;4915058;28;20561;-90
2022/05/16 11:38:37;;;;;;;5.77;3.53;;;19.10;99.90;;;;;;4909175;29;20450;-92
2022/05/16 11:41:18;;;;;;;3.37;3.07;;;19.10;99.90;;;;;;4934860;28;20443;-90
2022/05/16 11:44:20;;;;;;;3.60;3.10;;;18.80;99.90;;;;;;4922449;28;20456;-93
2022/05/16 11:47:19;;;;;;;6.07;3.50;;;18.80;99.90;;;;;;4896483;28;20446;-93
2022/05/16 11:50:36;;;;;;;4.37;3.17;;;18.80;99.90;;;;;;4908972;29;20545;-92
2022/05/16 11:53:48;;;;;;;5.60;2.93;;;18.70;99.90;;;;;;4893599;28;21272;-89
2022/05/16 12:02:16;;;;;;;3.63;3.00;;;18.10;99.90;;;;;;4933644;28;20452;-89
2022/05/16 12:05:14;;;;;;;3.60;2.63;;;18.10;99.90;;;;;;4907862;28;20801;-90
2022/05/16 12:07:45;;;;;;;3.53;2.70;;;18.00;99.90;;;;;;4910353;28;20231;-96
2022/05/16 12:10:14;;;;;;;3.20;2.90;;;17.90;99.90;;;;;;4928095;28;20443;-91
2022/05/16 12:12:41;;;;;;;3.43;2.20;;;17.90;99.90;;;;;;4938735;28;21006;-92
2022/05/16 12:15:24;;;;;;;5.43;2.93;;;17.90;99.90;;;;;;4927461;29;21008;-95
2022/05/16 12:17:51;;;;;;;2.93;2.50;;;17.80;99.90;;;;;;4925239;28;20978;-87
2022/05/16 12:20:32;;;;;;;3.10;2.70;;;17.60;99.90;;;;;;4929216;28;20492;-85
2022/05/16 12:22:58;;;;;;;3.73;3.00;;;17.60;99.90;;;;;;4924180;28;20537;-90
2022/05/16 12:25:32;;;;;;;3.60;2.60;;;17.60;99.90;;;;;;4906861;28;20454;-89
2022/05/16 12:28:29;;;;;;;3.53;2.50;;;17.70;99.90;;;;;;4924679;28;20221;-91
2022/05/16 12:31:40;;;;;;;3.97;3.10;;;18.00;99.90;;;;;;4927575;28;20439;-87
2022/05/16 12:34:44;;;;;;;4.03;2.83;;;18.30;99.90;;;;;;4863398;29;20523;-87
2022/05/16 12:37:13;;;;;;;2.93;2.53;;;18.50;99.90;;;;;;4910315;28;20572;-92
2022/05/16 12:40:06;;;;;;;3.43;2.60;;;18.70;99.90;;;;;;4919515;28;20438;-86
2022/05/16 12:43:03;;;;;;;7.20;3.00;;;19.00;99.90;;;;;;4906806;28;20462;-87
2022/05/16 12:45:48;;;;;;;6.60;3.03;;;19.30;99.90;;;;;;4921294;29;20454;-88
2022/05/16 12:48:53;;;;;;;4.03;3.20;;;19.60;99.90;;;;;;4916192;29;20588;-90
2022/05/16 12:51:25;;;;;;;5.33;3.13;;;19.80;99.90;;;;;;4903657;29;20450;-90
2022/05/16 12:54:04;;;;;;;5.57;3.00;;;20.00;99.90;;;;;;4924308;28;20443;-87
2022/05/16 12:56:50;;;;;;;4.10;2.60;;;20.00;99.90;;;;;;4896927;28;20454;-88
2022/05/16 12:59:38;;;;;;;3.13;2.83;;;19.90;99.90;;;;;;4919827;28;20470;-84
2022/05/16 13:02:30;;;;;;;6.73;2.73;;;19.90;99.90;;;;;;4908757;29;20547;-86
2022/05/16 13:05:05;;;;;;;4.07;3.10;;;20.50;99.90;;;;;;4916381;28;20743;-85
2022/05/16 13:08:01;;;;;;;3.10;2.70;;;20.80;99.90;;;;;;4926581;28;20722;-85
2022/05/16 13:10:35;;;;;;;5.50;2.90;;;21.50;99.90;;;;;;4928751;28;20463;-86
2022/05/16 13:13:27;;;;;;;3.60;2.40;;;21.70;99.90;;;;;;4944143;28;20950;-86
2022/05/16 13:16:28;;;;;;;2.90;2.60;;;21.90;99.90;;;;;;4933769;29;20450;-86
2022/05/16 13:19:29;;;;;;;4.37;2.07;;;22.10;99.90;;;;;;4909475;29;20557;-87
2022/05/16 13:22:06;;;;;;;5.07;2.33;;;21.70;99.90;;;;;;4935357;28;20447;-86
2022/05/16 13:24:33;;;;;;;3.90;2.07;;;21.90;99.90;;;;;;4942103;28;20856;-86
2022/05/16 13:29:49;;;;;;;2.70;2.50;;;22.10;99.90;;;;;;4946753;28;20872;-86
2022/05/16 13:32:18;;;;;;;3.60;2.60;;;22.30;99.90;;;;;;4944296;28;20435;-85
2022/05/16 13:34:56;;;;;;;3.20;2.30;;;22.40;99.90;;;;;;4931132;28;21086;-86
2022/05/16 13:37:26;;;;;;;4.00;2.43;;;22.60;99.90;;;;;;4943942;28;20441;-86
2022/05/16 13:40:06;;;;;;;2.83;2.63;;;22.30;99.90;;;;;;4941653;28;20868;-86
2022/05/16 13:42:43;;;;;;;3.83;2.50;;;22.10;99.90;;;;;;4939107;28;20477;-86
2022/05/16 13:45:28;;;;;;;4.57;2.63;;;22.10;99.90;;;;;;4941324;28;20504;-87
2022/05/16 13:48:07;;;;;;;4.33;2.70;;;21.80;99.90;;;;;;4943963;28;20988;-87
2022/05/16 13:50:52;;;;;;;4.73;2.63;;;21.90;99.90;;;;;;4940404;28;20480;-87
2022/05/16 13:53:22;;;;;;;3.87;2.97;;;22.80;99.90;;;;;;4943189;28;20473;-87
2022/05/16 13:55:50;;;;;;;3.33;2.43;;;23.80;99.90;;;;;;4923207;28;20445;-87